createdAt,value
2019-03-28T00:01:35.955Z,33.73
2019-03-28T00:04:08.031Z,35.65
2019-03-28T00:06:39.328Z,38.00
2019-03-28T00:09:11.371Z,37.23
2019-03-28T00:11:42.950Z,37.47
2019-03-28T00:14:14.456Z,32.70
2019-03-28T00:16:45.751Z,39.37
2019-03-28T00:19:18.353Z,36.45
2019-03-28T00:21:50.660Z,49.47
2019-03-28T00:24:49.901Z,38.30
2019-03-28T00:27:21.285Z,38.77
2019-03-28T00:29:52.982Z,43.40
2019-03-28T00:32:24.799Z,39.18
2019-03-28T00:34:56.053Z,38.13
2019-03-28T00:37:27.264Z,35.47
2019-03-28T00:39:58.502Z,35.47
2019-03-28T00:42:30.478Z,40.33
2019-03-28T00:45:01.921Z,38.67
2019-03-28T00:47:33.921Z,45.17
2019-03-28T00:50:15.716Z,40.87
2019-03-28T00:52:46.992Z,49.70
2019-03-28T00:55:18.546Z,43.28
2019-03-28T00:57:50.146Z,41.93
2019-03-28T01:00:22.272Z,38.13
2019-03-28T01:02:53.549Z,43.00
2019-03-28T01:05:25.047Z,41.43
2019-03-28T01:07:57.754Z,47.13
2019-03-28T01:10:29.704Z,40.83
2019-03-28T01:13:01.500Z,42.27
2019-03-28T01:15:32.700Z,46.63
2019-03-28T01:18:04.403Z,38.80
2019-03-28T01:20:36.122Z,48.60
2019-03-28T01:23:08.313Z,42.38
2019-03-28T01:25:39.713Z,41.70
2019-03-28T01:28:11.114Z,43.40
2019-03-28T01:30:42.815Z,40.43
2019-03-28T01:33:14.167Z,40.95
2019-03-28T01:35:45.858Z,45.00
2019-03-28T01:38:17.204Z,43.45
2019-03-28T01:40:50.005Z,48.93
2019-03-28T01:43:23.586Z,50.63
2019-03-28T01:45:57.035Z,42.77
2019-03-28T01:48:28.645Z,44.40
2019-03-28T01:51:00.440Z,51.53
2019-03-28T01:53:31.879Z,49.07
2019-03-28T01:56:03.269Z,47.80
2019-03-28T01:58:34.762Z,44.63
2019-03-28T02:01:06.594Z,50.85
2019-03-28T02:03:38.284Z,49.43
2019-03-28T02:06:09.880Z,48.87
2019-03-28T02:08:42.361Z,45.40
2019-03-28T02:11:13.741Z,48.83
2019-03-28T02:13:46.094Z,54.20
2019-03-28T02:16:17.871Z,45.27
2019-03-28T02:18:49.969Z,51.93
2019-03-28T02:21:21.454Z,48.85
2019-03-28T02:23:53.329Z,49.20
2019-03-28T02:26:26.958Z,51.42
2019-03-28T02:28:58.506Z,49.23
2019-03-28T02:31:30.279Z,50.60
2019-03-28T02:34:01.560Z,45.63
2019-03-28T02:36:33.237Z,45.77
2019-03-28T02:39:05.621Z,51.07
2019-03-28T02:41:37.041Z,57.90
2019-03-28T02:44:09.792Z,51.60
2019-03-28T02:46:41.123Z,47.17
2019-03-28T02:49:13.254Z,48.65
2019-03-28T02:51:44.621Z,52.47
2019-03-28T02:54:16.084Z,50.67
2019-03-28T02:56:47.336Z,51.23
2019-03-28T02:59:20.903Z,56.13
2019-03-28T03:01:53.185Z,53.73
2019-03-28T03:04:24.408Z,51.33
2019-03-28T03:06:55.592Z,50.90
2019-03-28T03:09:30.073Z,52.10
2019-03-28T03:12:01.552Z,52.00
2019-03-28T03:14:32.906Z,55.50
2019-03-28T03:17:04.233Z,54.30
2019-03-28T03:19:35.539Z,47.87
2019-03-28T03:22:08.169Z,59.15
2019-03-28T03:24:39.514Z,58.33
2019-03-28T03:27:10.979Z,56.10
2019-03-28T03:29:42.395Z,61.03
2019-03-28T03:32:13.754Z,59.88
2019-03-28T03:34:47.238Z,60.92
2019-03-28T03:37:18.663Z,59.83
2019-03-28T03:39:52.209Z,53.77
2019-03-28T03:42:24.048Z,60.55
2019-03-28T03:44:55.239Z,56.70
2019-03-28T03:47:27.655Z,57.67
2019-03-28T03:49:59.295Z,54.30
2019-03-28T03:52:30.725Z,58.47
2019-03-28T03:55:02.289Z,63.17
2019-03-28T03:57:33.712Z,59.67
2019-03-28T04:00:05.832Z,66.73
2019-03-28T04:02:37.279Z,64.90
2019-03-28T04:05:12.965Z,63.27
2019-03-28T04:07:44.470Z,66.57
2019-03-28T04:10:16.099Z,61.53
2019-03-28T04:12:47.730Z,60.47
2019-03-28T04:15:19.157Z,65.53
2019-03-28T04:17:50.727Z,60.20
2019-03-28T04:20:23.206Z,72.25
2019-03-28T04:22:54.916Z,69.00
2019-03-28T04:25:26.154Z,66.65
2019-03-28T04:27:59.607Z,70.77
2019-03-28T04:30:31.383Z,62.87
2019-03-28T04:33:02.660Z,61.63
2019-03-28T04:35:35.115Z,76.60
2019-03-28T13:27:34.859Z,17.50
2019-03-28T13:30:10.202Z,18.97
2019-03-28T13:32:42.454Z,16.87
2019-03-28T13:35:14.123Z,14.20
2019-03-28T13:37:45.091Z,16.13
2019-03-28T13:40:16.305Z,15.15
2019-03-28T13:42:48.744Z,13.30
2019-03-28T13:45:20.276Z,14.23
2019-03-28T13:47:54.178Z,16.27
2019-03-28T13:50:24.376Z,12.50
2019-03-28T13:52:55.321Z,11.83
2019-03-28T13:55:26.354Z,16.57
2019-03-28T13:57:57.757Z,13.50
2019-03-28T14:00:36.337Z,15.83
2019-03-28T14:03:07.541Z,12.90
2019-03-28T14:05:38.488Z,15.43
2019-03-28T14:08:09.463Z,16.73
2019-03-28T14:10:43.165Z,12.63
2019-03-28T14:13:14.226Z,14.10
2019-03-28T14:15:45.214Z,15.70
2019-03-28T14:18:17.412Z,11.95
2019-03-28T14:20:48.519Z,14.40
2019-03-28T14:23:19.402Z,16.80
2019-03-28T14:25:50.286Z,15.65
2019-03-28T14:28:21.367Z,15.17
2019-03-28T14:30:55.562Z,14.03
2019-03-28T14:33:28.128Z,15.27
2019-03-28T14:35:59.163Z,13.07
2019-03-28T14:38:30.116Z,15.37
2019-03-28T14:41:01.161Z,14.00
2019-03-28T14:43:32.044Z,14.63
2019-03-28T14:46:02.970Z,14.20
2019-03-28T14:48:33.892Z,12.93
2019-03-28T14:51:04.947Z,14.43
2019-03-28T14:53:36.099Z,15.27
2019-03-28T14:56:07.705Z,16.07
2019-03-28T14:58:39.207Z,19.07
2019-03-28T15:01:10.317Z,13.70
2019-03-28T15:03:41.362Z,18.50
2019-03-28T15:06:13.492Z,15.50
2019-03-28T15:08:44.456Z,16.90
2019-03-28T15:11:15.429Z,15.37
2019-03-28T15:13:46.469Z,15.63
2019-03-28T15:16:17.895Z,16.07
2019-03-28T15:18:51.685Z,13.10
2019-03-28T15:21:22.726Z,15.58
2019-03-28T15:23:53.656Z,13.23
2019-03-28T15:26:24.817Z,14.50
2019-03-28T15:28:55.823Z,11.50
2019-03-28T15:31:26.744Z,15.23
2019-03-28T15:33:57.716Z,16.93
2019-03-28T15:36:28.820Z,17.17
2019-03-28T15:38:59.799Z,15.10
2019-03-28T15:41:30.819Z,14.30
2019-03-28T15:44:01.773Z,14.77
2019-03-28T15:46:32.719Z,14.33
2019-03-28T15:49:03.794Z,17.02
2019-03-28T15:51:34.845Z,14.50
2019-03-28T15:54:05.939Z,15.57
2019-03-28T15:56:36.926Z,14.37
2019-03-28T15:59:08.028Z,14.57
2019-03-28T16:01:38.915Z,15.53
2019-03-28T16:04:09.816Z,17.83
2019-03-28T16:06:40.936Z,13.07
2019-03-28T16:09:12.509Z,13.65
2019-03-28T16:11:43.556Z,13.60
2019-03-28T16:14:14.456Z,13.77
2019-03-28T16:16:45.488Z,15.67
2019-03-28T16:19:16.457Z,15.33
2019-03-28T16:21:50.457Z,15.33
2019-03-28T16:24:21.427Z,18.80
2019-03-28T16:26:52.524Z,16.17
2019-03-28T16:29:23.582Z,14.35
2019-03-28T16:31:55.911Z,15.20
2019-03-28T16:34:26.909Z,15.60
2019-03-28T16:36:58.055Z,13.37
2019-03-28T16:39:29.191Z,16.43
2019-03-28T16:42:00.414Z,16.13
2019-03-28T16:44:31.384Z,17.37
2019-03-28T16:47:02.521Z,23.43
2019-03-28T16:49:33.595Z,17.20
2019-03-28T16:52:04.637Z,18.17
2019-03-28T16:54:38.841Z,14.60
2019-03-28T16:57:09.922Z,15.23
2019-03-28T16:59:40.954Z,16.93
2019-03-28T17:02:12.063Z,17.15
2019-03-28T17:04:43.184Z,18.80
2019-03-28T17:07:15.989Z,17.85
2019-03-28T17:09:47.520Z,15.27
2019-03-28T17:12:18.631Z,15.83
2019-03-28T17:14:49.595Z,16.13
2019-03-28T17:17:20.686Z,14.33
2019-03-28T17:19:51.749Z,17.13
2019-03-28T17:22:22.795Z,16.10
2019-03-28T17:24:53.920Z,17.77
2019-03-28T17:28:08.079Z,17.53
2019-03-28T17:30:43.922Z,17.33
2019-03-28T17:33:23.077Z,16.90
2019-03-28T17:35:55.001Z,18.33
2019-03-28T17:38:27.554Z,18.10
2019-03-28T17:40:59.103Z,19.00
2019-03-28T17:43:30.359Z,19.33
2019-03-28T17:46:01.672Z,16.02
2019-03-28T17:48:33.030Z,18.67
2019-03-28T17:51:04.095Z,17.87
2019-03-28T17:53:35.133Z,18.07
2019-03-28T17:56:06.343Z,21.03
2019-03-28T17:58:37.345Z,19.87
2019-03-28T18:01:08.705Z,16.90
2019-03-28T18:03:42.925Z,16.03
2019-03-28T18:06:14.642Z,21.00
2019-03-28T18:08:46.170Z,20.00
2019-03-28T18:11:17.535Z,19.90
2019-03-28T18:13:48.890Z,17.60
2019-03-28T18:16:20.325Z,18.02
2019-03-28T18:18:51.601Z,16.10
2019-03-28T18:21:23.046Z,18.42
2019-03-28T18:23:54.487Z,18.00
2019-03-28T18:26:25.930Z,20.33
2019-03-28T18:28:57.264Z,21.17
2019-03-28T18:31:28.593Z,21.63
2019-03-28T18:33:59.993Z,17.90
2019-03-28T18:39:14.935Z,21.77
2019-03-28T18:41:46.275Z,23.60
2019-03-28T18:44:17.564Z,25.05
2019-03-28T18:46:49.060Z,23.63
2019-03-28T18:49:23.813Z,24.03
2019-03-28T18:51:55.110Z,24.37
2019-03-28T18:54:26.463Z,21.90
2019-03-28T18:56:58.210Z,24.63
2019-03-28T18:59:29.447Z,27.67
2019-03-28T19:02:00.708Z,22.52
2019-03-28T19:04:32.061Z,23.17
2019-03-28T19:07:03.460Z,22.13
2019-03-28T19:09:34.796Z,25.50
2019-03-28T19:12:06.204Z,28.33
2019-03-28T19:14:37.474Z,25.47
2019-03-28T19:17:08.775Z,24.60
2019-03-28T19:19:40.093Z,34.13
2019-03-28T19:22:11.375Z,32.00
2019-03-28T19:24:42.780Z,30.53
2019-03-28T19:27:14.514Z,34.67
2019-03-28T19:29:45.621Z,27.30
2019-03-28T19:32:16.968Z,25.87
2019-03-28T19:34:48.302Z,25.70
2019-03-28T19:37:22.685Z,24.23
2019-03-28T19:39:53.027Z,24.10
2019-03-28T19:42:24.491Z,23.60
2019-03-28T19:44:56.066Z,24.43
2019-03-28T19:47:28.739Z,23.77
2019-03-28T19:50:00.282Z,22.97
2019-03-28T19:52:31.697Z,25.67
2019-03-28T19:55:03.105Z,22.03
2019-03-28T19:57:34.476Z,24.80
2019-03-28T20:00:06.465Z,25.20
2019-03-28T20:02:38.528Z,24.87
2019-03-28T20:05:11.295Z,24.93
2019-03-28T20:07:45.705Z,25.20
2019-03-28T20:10:16.980Z,20.37
2019-03-28T20:12:48.885Z,19.40
2019-03-28T20:15:20.198Z,24.72
2019-03-28T20:17:51.543Z,28.90
2019-03-28T20:20:25.019Z,21.93
2019-03-28T20:22:56.787Z,23.33
2019-03-28T20:25:28.244Z,27.60
2019-03-28T20:27:59.673Z,25.57
2019-03-28T20:30:30.980Z,21.97
2019-03-28T20:33:02.324Z,22.67
2019-03-28T20:35:33.563Z,24.92
2019-03-28T20:38:04.830Z,23.00
2019-03-28T20:40:36.370Z,21.70
2019-03-28T20:43:08.252Z,24.57
2019-03-28T20:45:39.568Z,22.13
2019-03-28T20:48:11.039Z,22.77
2019-03-28T20:50:42.421Z,24.07
2019-03-28T20:53:13.707Z,22.07
2019-03-28T20:55:45.264Z,21.57
2019-03-28T20:58:16.698Z,22.70
2019-03-28T21:00:49.287Z,25.03
2019-03-28T21:03:20.726Z,23.03
2019-03-28T21:05:52.028Z,23.03
2019-03-28T21:08:23.447Z,23.67
2019-03-28T21:10:54.743Z,22.47
2019-03-28T21:13:29.880Z,22.32
2019-03-28T21:16:00.575Z,21.10
2019-03-28T21:18:31.923Z,23.30
2019-03-28T21:21:03.339Z,22.23
2019-03-28T21:23:34.705Z,20.85
2019-03-28T21:26:06.021Z,21.37
2019-03-28T21:28:47.235Z,26.70
2019-03-28T21:31:10.580Z,22.30
2019-03-28T21:33:43.412Z,24.00
2019-03-28T21:36:28.648Z,23.87
2019-03-28T21:38:47.795Z,23.27
2019-03-28T21:41:20.344Z,21.57
2019-03-28T21:43:52.111Z,22.43
2019-03-28T21:46:25.951Z,23.23
2019-03-28T21:48:59.609Z,26.60
2019-03-28T21:51:30.987Z,24.67
2019-03-28T21:54:04.883Z,25.43
2019-03-28T21:56:35.563Z,25.93
2019-03-28T21:59:10.859Z,23.72
2019-03-28T22:01:42.314Z,25.40
2019-03-28T22:04:13.765Z,25.80
2019-03-28T22:06:45.115Z,26.90
2019-03-28T22:09:16.455Z,24.85
2019-03-28T22:11:47.847Z,25.90
2019-03-28T22:14:19.812Z,23.20
2019-03-28T22:16:51.135Z,22.37
2019-03-28T22:19:22.138Z,27.20
2019-03-28T22:21:53.190Z,22.73
2019-03-28T22:24:24.171Z,24.57
2019-03-28T22:26:55.215Z,21.83
2019-03-28T22:29:26.245Z,25.43
2019-03-28T22:31:57.224Z,23.17
2019-03-28T22:34:28.146Z,23.60
2019-03-28T22:37:00.893Z,25.27
2019-03-28T22:39:31.869Z,20.20
2019-03-28T22:42:02.831Z,25.60
2019-03-28T22:44:34.133Z,21.70
2019-03-28T22:47:05.945Z,23.40
2019-03-28T22:49:39.149Z,22.80
2019-03-28T22:52:10.196Z,23.97
2019-03-28T22:54:41.185Z,20.40
2019-03-28T22:57:12.357Z,20.10
2019-03-28T22:59:43.301Z,24.10
2019-03-28T23:02:14.362Z,21.60
2019-03-28T23:04:45.398Z,21.40
2019-03-28T23:07:16.438Z,25.02
2019-03-28T23:09:47.316Z,21.43
2019-03-28T23:12:18.346Z,21.93
2019-03-28T23:14:49.415Z,22.17
2019-03-28T23:17:28.189Z,23.05
2019-03-28T23:20:06.406Z,17.83
2019-03-28T23:22:37.537Z,20.37
2019-03-28T23:25:09.298Z,20.17
2019-03-28T23:27:40.364Z,22.00
2019-03-28T23:30:11.842Z,20.87
2019-03-28T23:32:43.015Z,19.60
2019-03-28T23:35:14.749Z,19.40
2019-03-28T23:37:45.758Z,20.67
2019-03-28T23:40:16.960Z,17.20
2019-03-28T23:42:48.149Z,18.03
2019-03-28T23:45:19.813Z,16.75
2019-03-28T23:47:50.999Z,19.77
2019-03-28T23:50:22.092Z,18.23
2019-03-28T23:52:53.208Z,16.87
2019-03-28T23:55:24.277Z,17.63
2019-03-28T23:57:55.247Z,19.37
